createdAt,value
2018-08-30T00:00:13.265Z,97801.84
2018-08-30T00:02:42.669Z,97809.75
2018-08-30T00:05:12.047Z,97810.58
2018-08-30T00:07:41.429Z,97810.36
2018-08-30T00:10:10.836Z,97815.41
2018-08-30T00:12:40.277Z,97819.97
2018-08-30T00:15:09.652Z,97819.73
2018-08-30T00:17:39.090Z,97821.98
2018-08-30T00:20:08.456Z,97821.61
2018-08-30T00:22:37.895Z,97826.88
2018-08-30T00:25:07.278Z,97823.20
2018-08-30T00:27:36.712Z,97818.39
2018-08-30T00:30:06.108Z,97825.86
2018-08-30T00:32:35.506Z,97828.42
2018-08-30T00:35:05.096Z,97834.84
2018-08-30T00:37:34.520Z,97832.15
2018-08-30T00:40:03.896Z,97838.48
2018-08-30T00:42:33.448Z,97848.71
2018-08-30T00:45:02.814Z,97854.09
2018-08-30T00:47:32.237Z,97879.16
2018-08-30T00:50:01.610Z,97880.21
2018-08-30T00:52:31.052Z,97873.16
2018-08-30T00:55:00.416Z,97878.22
2018-08-30T00:57:29.805Z,97881.41
2018-08-30T00:59:59.204Z,97884.13
2018-08-30T01:02:28.569Z,97885.08
2018-08-30T01:04:57.941Z,97891.55
2018-08-30T01:07:27.333Z,97894.31
2018-08-30T01:09:56.697Z,97885.86
2018-08-30T01:12:26.173Z,97892.16
2018-08-30T01:14:55.581Z,97886.02
2018-08-30T01:17:25.048Z,97899.17
2018-08-30T01:19:54.437Z,97915.68
2018-08-30T01:22:23.870Z,97900.64
2018-08-30T01:24:53.233Z,97901.92
2018-08-30T01:27:22.657Z,97901.05
2018-08-30T01:29:52.018Z,97906.97
2018-08-30T01:32:21.473Z,97912.51
2018-08-30T01:34:50.844Z,97906.83
2018-08-30T01:37:20.283Z,97920.92
2018-08-30T01:39:49.645Z,97910.44
2018-08-30T01:42:19.102Z,97908.48
2018-08-30T01:44:48.459Z,97904.41
2018-08-30T01:47:17.910Z,97911.27
2018-08-30T01:49:47.305Z,97913.37
2018-08-30T01:52:16.685Z,97915.94
2018-08-30T01:54:46.068Z,97919.89
2018-08-30T01:57:15.636Z,97925.54
2018-08-30T01:59:45.005Z,97915.33
2018-08-30T02:02:14.454Z,97936.49
2018-08-30T02:04:43.814Z,97935.59
2018-08-30T02:07:13.206Z,97940.33
2018-08-30T02:09:42.583Z,97936.29
2018-08-30T02:12:12.018Z,97940.44
2018-08-30T02:14:41.382Z,97939.41
2018-08-30T02:17:10.821Z,97935.60
2018-08-30T02:19:40.233Z,97942.11
2018-08-30T02:22:09.625Z,97950.00
2018-08-30T02:24:38.984Z,97942.17
2018-08-30T02:27:08.431Z,97951.66
2018-08-30T02:29:37.817Z,97953.84
2018-08-30T02:32:07.286Z,97956.13
2018-08-30T02:34:36.630Z,97960.48
2018-08-30T02:37:06.048Z,97966.64
2018-08-30T02:39:35.432Z,97970.99
2018-08-30T02:42:04.861Z,97975.70
2018-08-30T02:44:34.208Z,97974.48
2018-08-30T02:47:03.642Z,97979.44
2018-08-30T02:49:33.041Z,97981.48
2018-08-30T02:52:02.468Z,97981.97
2018-08-30T02:54:32.204Z,97982.83
2018-08-30T02:57:01.684Z,97989.44
2018-08-30T02:59:31.064Z,97991.01
2018-08-30T03:02:00.486Z,97993.22
2018-08-30T03:04:29.857Z,97991.23
2018-08-30T03:06:59.320Z,97992.68
2018-08-30T03:09:28.705Z,97990.79
2018-08-30T03:11:58.182Z,97988.17
2018-08-30T03:14:27.574Z,97989.92
2018-08-30T03:16:56.986Z,98000.50
2018-08-30T03:19:26.353Z,97993.31
2018-08-30T03:21:55.804Z,97995.58
2018-08-30T03:24:25.169Z,97997.03
2018-08-30T03:26:54.607Z,97985.52
2018-08-30T03:29:23.981Z,97993.14
2018-08-30T03:31:53.443Z,97984.63
2018-08-30T03:34:22.785Z,97982.05
2018-08-30T03:36:52.216Z,97986.00
2018-08-30T03:39:21.577Z,97982.55
2018-08-30T03:41:51.053Z,97981.64
2018-08-30T03:44:20.427Z,97989.58
2018-08-30T03:46:49.786Z,97993.33
2018-08-30T03:49:19.180Z,98005.38
2018-08-30T03:51:48.622Z,97997.34
2018-08-30T03:54:18.035Z,97994.70
2018-08-30T03:56:47.442Z,98000.58
2018-08-30T03:59:16.796Z,98007.25
2018-08-30T04:01:46.237Z,98009.59
2018-08-30T04:04:15.679Z,98013.06
2018-08-30T04:06:45.093Z,98030.90
2018-08-30T04:09:14.465Z,98028.84
2018-08-30T04:11:43.881Z,98026.56
2018-08-30T04:14:13.229Z,98043.41
2018-08-30T04:16:42.637Z,98031.63
2018-08-30T04:19:12.000Z,98032.13
2018-08-30T04:21:41.467Z,98028.94
2018-08-30T04:24:10.927Z,98034.08
2018-08-30T04:26:40.370Z,98041.87
2018-08-30T04:29:09.861Z,98037.59
2018-08-30T04:31:39.359Z,98039.95
2018-08-30T04:34:08.720Z,98040.50
2018-08-30T04:36:38.182Z,98034.31
2018-08-30T04:39:09.440Z,98041.84
2018-08-30T04:41:38.833Z,98043.56
2018-08-30T04:44:08.217Z,98049.52
2018-08-30T04:46:37.633Z,98047.30
2018-08-30T04:49:07.025Z,98058.52
2018-08-30T04:51:36.436Z,98061.52
2018-08-30T04:54:06.593Z,98055.67
2018-08-30T04:56:36.077Z,98058.59
2018-08-30T04:59:05.429Z,98069.62
2018-08-30T05:01:34.884Z,98073.64
2018-08-30T05:04:04.506Z,98071.86
2018-08-30T05:06:33.963Z,98074.13
2018-08-30T05:09:03.852Z,98076.08
2018-08-30T05:11:33.280Z,98086.80
2018-08-30T05:14:02.652Z,98087.97
2018-08-30T05:16:32.101Z,98090.34
2018-08-30T05:19:01.970Z,98093.00
2018-08-30T05:21:31.425Z,98093.66
2018-08-30T05:24:00.996Z,98093.66
2018-08-30T05:26:30.361Z,98114.83
2018-08-30T05:28:59.727Z,98101.89
2018-08-30T05:31:29.129Z,98109.34
2018-08-30T05:33:58.501Z,98111.91
2018-08-30T05:36:27.935Z,98114.59
2018-08-30T05:38:57.317Z,98122.20
2018-08-30T05:41:26.739Z,98125.50
2018-08-30T05:43:56.098Z,98133.53
2018-08-30T05:46:25.532Z,98128.49
2018-08-30T05:48:54.900Z,98127.73
2018-08-30T05:51:24.293Z,98131.78
2018-08-30T05:53:53.644Z,98130.56
2018-08-30T05:56:22.994Z,98133.16
2018-08-30T05:58:52.376Z,98131.71
2018-08-30T06:01:21.857Z,98139.94
2018-08-30T06:03:51.260Z,98141.37
2018-08-30T06:06:20.647Z,98145.09
2018-08-30T06:08:50.003Z,98153.28
2018-08-30T06:11:19.513Z,98141.91
2018-08-30T06:13:48.877Z,98153.16
2018-08-30T06:16:18.266Z,98154.27
2018-08-30T06:18:47.640Z,98158.70
2018-08-30T06:21:17.063Z,98157.66
2018-08-30T06:23:46.449Z,98153.92
2018-08-30T06:26:15.812Z,98155.78
2018-08-30T06:28:45.320Z,98153.16
2018-08-30T06:31:14.687Z,98166.95
2018-08-30T06:33:44.185Z,98165.00
2018-08-30T06:36:13.592Z,98169.34
2018-08-30T06:38:43.004Z,98176.46
2018-08-30T06:41:12.409Z,98174.71
2018-08-30T06:43:41.764Z,98177.56
2018-08-30T06:46:11.211Z,98177.80
2018-08-30T06:48:40.636Z,98192.99
2018-08-30T06:51:09.997Z,98193.73
2018-08-30T06:53:39.348Z,98189.81
2018-08-30T06:56:08.825Z,98197.29
2018-08-30T06:58:38.175Z,98200.82
2018-08-30T07:01:07.623Z,98202.55
2018-08-30T07:03:37.008Z,98206.28
2018-08-30T07:06:06.623Z,98205.25
2018-08-30T07:08:35.982Z,98215.33
2018-08-30T07:11:05.428Z,98216.14
2018-08-30T07:13:34.793Z,98213.45
2018-08-30T07:19:01.521Z,98212.22
2018-08-30T07:21:31.443Z,98216.66
2018-08-30T07:24:00.817Z,98223.50
2018-08-30T07:26:30.215Z,98223.23
2018-08-30T07:28:59.594Z,98228.88
2018-08-30T07:31:29.044Z,98233.43
2018-08-30T07:33:58.407Z,98241.47
2018-08-30T07:36:27.819Z,98239.59
2018-08-30T07:38:57.191Z,98248.30
2018-08-30T07:41:26.607Z,98255.30
2018-08-30T07:43:55.982Z,98261.45
2018-08-30T07:46:25.435Z,98270.72
2018-08-30T07:48:54.810Z,98273.82
2018-08-30T07:51:24.180Z,98274.45
2018-08-30T07:53:53.566Z,98285.59
2018-08-30T07:56:23.049Z,98284.47
2018-08-30T07:58:52.431Z,98283.12
2018-08-30T08:01:21.829Z,98292.19
2018-08-30T08:03:51.195Z,98296.74
2018-08-30T08:06:20.642Z,98294.91
2018-08-30T08:08:50.017Z,98305.88
2018-08-30T08:11:19.460Z,98303.81
2018-08-30T08:13:48.822Z,98303.26
2018-08-30T08:16:18.200Z,98315.92
2018-08-30T08:18:47.705Z,98308.67
2018-08-30T08:21:17.163Z,98310.06
2018-08-30T08:23:46.532Z,98317.23
2018-08-30T08:26:15.964Z,98315.25
2018-08-30T08:28:45.335Z,98320.33
2018-08-30T08:31:14.799Z,98323.11
2018-08-30T08:33:44.137Z,98327.59
2018-08-30T08:36:13.588Z,98333.02
2018-08-30T08:38:42.958Z,98329.50
2018-08-30T08:41:12.406Z,98322.61
2018-08-30T08:43:41.765Z,98326.16
2018-08-30T08:46:11.145Z,98331.61
2018-08-30T08:48:40.646Z,98327.38
2018-08-30T08:51:10.092Z,98338.08
2018-08-30T08:53:39.539Z,98330.44
2018-08-30T08:56:08.914Z,98333.80
2018-08-30T08:58:38.333Z,98330.52
2018-08-30T09:01:07.713Z,98338.30
2018-08-30T09:03:37.082Z,98338.69
2018-08-30T09:06:06.613Z,98330.72
2018-08-30T09:08:36.028Z,98328.98
2018-08-30T09:11:05.854Z,98327.70
2018-08-30T09:13:35.258Z,98326.23
2018-08-30T09:16:04.647Z,98340.41
2018-08-30T09:18:34.030Z,98341.36
2018-08-30T09:21:03.423Z,98338.70
2018-08-30T09:23:32.803Z,98350.23
2018-08-30T09:26:02.247Z,98347.48
2018-08-30T09:28:31.710Z,98343.32
2018-08-30T09:31:01.210Z,98345.47
2018-08-30T09:33:30.564Z,98343.86
2018-08-30T09:35:59.978Z,98339.42
2018-08-30T09:38:29.337Z,98336.71
2018-08-30T09:40:58.772Z,98345.88
2018-08-30T09:43:28.151Z,98348.38
2018-08-30T09:45:57.628Z,98336.39
2018-08-30T09:48:26.998Z,98346.61
2018-08-30T09:50:56.473Z,98339.77
2018-08-30T09:53:25.989Z,98334.73
2018-08-30T09:55:55.390Z,98338.66
2018-08-30T09:58:24.746Z,98354.50
2018-08-30T10:00:59.414Z,98339.63
2018-08-30T10:03:28.775Z,98359.45
2018-08-30T10:05:58.189Z,98348.83
2018-08-30T10:08:27.524Z,98346.23
2018-08-30T10:10:56.902Z,98350.53
2018-08-30T10:13:26.271Z,98353.20
2018-08-30T10:15:55.794Z,98338.34
2018-08-30T10:18:25.090Z,98347.14
2018-08-30T10:20:54.510Z,98347.81
2018-08-30T10:23:23.894Z,98335.95
2018-08-30T10:25:53.373Z,98348.92
2018-08-30T10:28:22.715Z,98353.55
2018-08-30T10:30:52.133Z,98360.52
2018-08-30T10:33:21.505Z,98350.64
2018-08-30T10:35:50.931Z,98362.75
2018-08-30T10:38:20.314Z,98364.44
2018-08-30T10:40:49.736Z,98354.97
2018-08-30T10:43:19.090Z,98355.14
2018-08-30T10:45:48.561Z,98378.26
2018-08-30T10:48:17.935Z,98347.61
2018-08-30T10:50:47.351Z,98341.96
2018-08-30T10:53:16.725Z,98354.38
2018-08-30T10:55:46.254Z,98345.14
2018-08-30T10:58:15.631Z,98346.59
2018-08-30T11:00:45.074Z,98333.85
2018-08-30T11:03:14.827Z,98338.08
2018-08-30T11:05:44.305Z,98352.27
2018-08-30T11:08:13.666Z,98342.88
2018-08-30T11:10:43.098Z,98331.77
2018-08-30T11:13:12.450Z,98330.56
2018-08-30T11:15:41.914Z,98343.20
2018-08-30T11:18:11.269Z,98325.45
2018-08-30T11:20:40.710Z,98334.70
2018-08-30T11:23:10.050Z,98336.12
2018-08-30T11:25:39.542Z,98330.95
2018-08-30T11:28:09.101Z,98331.02
2018-08-30T11:30:38.505Z,98332.83
2018-08-30T11:33:07.880Z,98333.20
2018-08-30T11:35:37.310Z,98334.77
2018-08-30T11:38:06.938Z,98320.11
2018-08-30T11:40:36.339Z,98335.11
2018-08-30T11:43:05.693Z,98352.17
2018-08-30T11:45:35.126Z,98339.47
2018-08-30T11:48:04.487Z,98336.27
2018-08-30T11:50:33.986Z,98337.33
2018-08-30T11:53:03.341Z,98347.50
2018-08-30T11:55:32.750Z,98335.63
2018-08-30T11:58:02.096Z,98335.12
2018-08-30T12:00:31.555Z,98351.37
2018-08-30T12:03:01.194Z,98347.41
2018-08-30T12:05:30.712Z,98353.18
2018-08-30T12:08:00.160Z,98352.16
2018-08-30T12:10:30.133Z,98345.95
2018-08-30T12:12:59.526Z,98356.46
2018-08-30T12:15:29.135Z,98358.46
2018-08-30T12:17:58.485Z,98367.87
2018-08-30T12:20:28.001Z,98361.24
2018-08-30T12:22:57.249Z,98367.75
2018-08-30T12:25:26.695Z,98363.63
2018-08-30T12:27:56.061Z,98371.34
2018-08-30T12:30:25.542Z,98366.39
2018-08-30T12:32:54.911Z,98362.75
2018-08-30T12:35:24.369Z,98357.53
2018-08-30T12:37:53.745Z,98368.52
2018-08-30T12:40:23.237Z,98359.76
2018-08-30T12:42:52.630Z,98362.98
2018-08-30T12:45:21.941Z,98350.52
2018-08-30T12:47:51.282Z,98363.53
2018-08-30T12:50:20.833Z,98352.03
2018-08-30T12:52:50.176Z,98360.20
2018-08-30T12:55:19.607Z,98345.45
2018-08-30T12:57:48.892Z,98366.20
2018-08-30T13:00:18.485Z,98372.60
2018-08-30T13:02:47.875Z,98367.61
2018-08-30T13:05:17.329Z,98366.67
2018-08-30T13:07:46.661Z,98365.00
2018-08-30T13:10:16.035Z,98367.30
2018-08-30T13:12:45.600Z,98366.03
2018-08-30T13:15:14.977Z,98379.38
2018-08-30T13:17:44.198Z,98373.81
2018-08-30T13:20:13.921Z,98383.72
2018-08-30T13:22:43.256Z,98387.54
2018-08-30T13:25:12.723Z,98378.69
2018-08-30T13:27:41.935Z,98386.42
2018-08-30T13:30:11.446Z,98386.13
2018-08-30T13:32:41.164Z,98385.38
2018-08-30T13:35:10.511Z,98381.64
2018-08-30T13:37:39.855Z,98380.65
2018-08-30T13:40:09.267Z,98379.41
2018-08-30T13:42:38.437Z,98382.09
2018-08-30T13:45:08.751Z,98376.14
2018-08-30T13:47:38.100Z,98380.64
2018-08-30T13:50:07.864Z,98377.25
2018-08-30T13:52:37.080Z,98384.75
2018-08-30T13:55:06.390Z,98388.02
2018-08-30T13:57:35.951Z,98381.65
2018-08-30T14:00:05.765Z,98382.94
2018-08-30T14:02:34.989Z,98376.53
2018-08-30T14:05:04.538Z,98383.79
2018-08-30T14:07:33.702Z,98383.84
2018-08-30T14:10:03.264Z,98375.03
2018-08-30T14:12:32.708Z,98374.00
2018-08-30T14:15:02.364Z,98363.59
2018-08-30T14:17:31.019Z,98372.44
2018-08-30T14:20:00.476Z,98375.76
2018-08-30T14:22:29.848Z,98368.91
2018-08-30T14:24:59.310Z,98371.68
2018-08-30T14:27:28.644Z,98365.56
2018-08-30T14:29:58.054Z,98377.30
2018-08-30T14:32:27.472Z,98365.28
2018-08-30T14:34:57.121Z,98366.66
2018-08-30T14:37:26.618Z,98353.23
2018-08-30T14:39:55.999Z,98360.46
2018-08-30T14:42:25.355Z,98362.33
2018-08-30T14:44:54.799Z,98362.48
2018-08-30T14:47:24.269Z,98365.46
2018-08-30T14:49:53.758Z,98364.13
2018-08-30T14:52:23.114Z,98357.31
2018-08-30T14:54:52.561Z,98365.63
2018-08-30T14:57:21.890Z,98367.70
2018-08-30T14:59:51.314Z,98367.80
2018-08-30T15:02:20.722Z,98364.23
2018-08-30T15:04:50.381Z,98370.13
2018-08-30T15:07:19.802Z,98370.53
2018-08-30T15:09:49.214Z,98361.34
2018-08-30T15:12:18.642Z,98369.53
2018-08-30T15:14:48.265Z,98365.61
2018-08-30T15:17:17.850Z,98370.13
2018-08-30T15:19:47.309Z,98369.14
2018-08-30T15:22:16.467Z,98371.83
2018-08-30T15:24:45.951Z,98370.63
2018-08-30T15:27:15.328Z,98366.98
2018-08-30T15:29:44.733Z,98372.97
2018-08-30T15:32:14.104Z,98372.34
2018-08-30T15:34:43.562Z,98375.42
2018-08-30T15:37:13.079Z,98373.86
2018-08-30T15:39:42.446Z,98372.20
2018-08-30T15:42:11.926Z,98377.15
2018-08-30T15:44:41.261Z,98380.38
2018-08-30T15:47:10.706Z,98383.80
2018-08-30T15:49:40.062Z,98386.28
2018-08-30T15:52:09.426Z,98378.90
2018-08-30T15:54:38.881Z,98387.70
2018-08-30T15:57:08.311Z,98381.47
2018-08-30T15:59:37.684Z,98374.56
2018-08-30T16:02:07.183Z,98372.90
2018-08-30T16:04:36.727Z,98373.41
2018-08-30T16:07:06.093Z,98368.02
2018-08-30T16:09:35.508Z,98364.25
2018-08-30T16:12:04.898Z,98369.14
2018-08-30T16:14:34.319Z,98373.53
2018-08-30T16:17:03.773Z,98368.98
2018-08-30T16:19:33.103Z,98365.12
2018-08-30T16:22:02.486Z,98363.28
2018-08-30T16:24:31.963Z,98360.67
2018-08-30T16:27:01.271Z,98363.39
2018-08-30T16:29:30.719Z,98360.44
2018-08-30T16:32:00.098Z,98363.29
2018-08-30T16:34:29.514Z,98363.98
2018-08-30T16:36:58.884Z,98366.59
2018-08-30T16:39:28.268Z,98364.92
2018-08-30T16:41:57.641Z,98365.70
2018-08-30T16:44:27.041Z,98366.91
2018-08-30T16:46:56.412Z,98368.84
2018-08-30T16:49:25.835Z,98368.84
2018-08-30T16:51:55.185Z,98363.66
2018-08-30T16:54:24.654Z,98362.53
2018-08-30T16:56:54.014Z,98366.36
2018-08-30T16:59:23.567Z,98370.37
2018-08-30T17:01:52.839Z,98367.68
2018-08-30T17:04:22.268Z,98375.20
2018-08-30T17:06:51.646Z,98374.38
2018-08-30T17:09:21.030Z,98373.38
2018-08-30T17:11:50.441Z,98373.98
2018-08-30T17:14:19.810Z,98370.34
2018-08-30T17:16:49.258Z,98369.29
2018-08-30T17:19:30.331Z,98373.31
2018-08-30T17:21:59.685Z,98377.25
2018-08-30T17:24:29.184Z,98387.23
2018-08-30T17:26:58.530Z,98388.83
2018-08-30T17:29:27.962Z,98387.49
2018-08-30T17:31:57.363Z,98386.26
2018-08-30T17:34:26.724Z,98392.10
2018-08-30T17:36:56.173Z,98393.78
2018-08-30T17:39:25.537Z,98399.53
2018-08-30T17:41:54.957Z,98393.32
2018-08-30T17:44:24.367Z,98397.86
2018-08-30T17:46:53.795Z,98402.39
2018-08-30T17:49:23.145Z,98409.16
2018-08-30T17:51:52.606Z,98407.59
2018-08-30T17:54:21.958Z,98402.04
2018-08-30T17:56:51.389Z,98405.98
2018-08-30T17:59:20.755Z,98409.20
2018-08-30T18:01:50.207Z,98415.04
2018-08-30T18:04:19.557Z,98411.00
2018-08-30T18:06:49.050Z,98412.63
2018-08-30T18:09:18.381Z,98420.08
2018-08-30T18:11:47.781Z,98413.75
2018-08-30T18:14:17.157Z,98417.09
2018-08-30T18:16:46.627Z,98419.36
2018-08-30T18:19:15.976Z,98421.13
2018-08-30T18:21:45.462Z,98418.30
2018-08-30T18:24:14.858Z,98416.72
2018-08-30T18:26:44.198Z,98415.34
2018-08-30T18:29:13.590Z,98422.42
2018-08-30T18:31:43.126Z,98422.03
2018-08-30T18:34:12.531Z,98421.02
2018-08-30T18:36:41.907Z,98424.80
2018-08-30T18:39:11.683Z,98427.02
2018-08-30T18:41:41.147Z,98425.25
2018-08-30T18:44:10.918Z,98425.73
2018-08-30T18:46:40.270Z,98429.37
2018-08-30T18:49:09.670Z,98429.05
2018-08-30T18:51:39.054Z,98430.03
2018-08-30T18:54:08.449Z,98436.08
2018-08-30T18:56:37.803Z,98439.20
2018-08-30T18:59:07.262Z,98442.39
2018-08-30T19:01:36.631Z,98441.14
2018-08-30T19:04:06.130Z,98439.47
2018-08-30T19:06:36.779Z,98440.30
2018-08-30T19:09:09.976Z,98448.44
2018-08-30T19:11:39.982Z,98454.44
2018-08-30T19:14:09.741Z,98454.60
2018-08-30T19:16:44.987Z,98454.74
2018-08-30T19:19:17.178Z,98456.41
2018-08-30T19:21:46.573Z,98467.20
2018-08-30T19:24:21.317Z,98459.59
2018-08-30T19:26:50.882Z,98469.45
2018-08-30T19:29:20.922Z,98473.02
2018-08-30T19:31:50.336Z,98470.64
2018-08-30T19:34:20.698Z,98472.75
2018-08-30T19:36:50.269Z,98473.59
2018-08-30T19:39:19.715Z,98475.42
2018-08-30T19:41:50.281Z,98476.78
2018-08-30T19:44:19.666Z,98473.02
2018-08-30T19:46:49.058Z,98473.91
2018-08-30T19:49:18.961Z,98474.77
2018-08-30T19:51:48.409Z,98468.95
2018-08-30T19:54:17.974Z,98468.60
2018-08-30T19:56:47.501Z,98469.16
2018-08-30T19:59:17.038Z,98469.70
2018-08-30T20:01:46.482Z,98475.77
2018-08-30T20:04:16.113Z,98475.02
2018-08-30T20:06:45.632Z,98481.99
2018-08-30T20:09:15.320Z,98483.94
2018-08-30T20:11:44.800Z,98485.53
2018-08-30T20:14:15.210Z,98491.53
2018-08-30T20:16:46.459Z,98487.78
2018-08-30T20:19:16.235Z,98493.58
2018-08-30T20:21:45.864Z,98487.41
2018-08-30T20:24:15.447Z,98487.91
2018-08-30T20:26:44.817Z,98498.61
2018-08-30T20:29:14.192Z,98493.45
2018-08-30T20:31:43.646Z,98489.31
2018-08-30T20:34:12.982Z,98493.31
2018-08-30T20:36:42.334Z,98491.57
2018-08-30T20:39:11.746Z,98490.89
2018-08-30T20:41:41.114Z,98494.74
2018-08-30T20:44:10.695Z,98494.72
2018-08-30T20:46:40.195Z,98491.61
2018-08-30T20:49:09.543Z,98496.92
2018-08-30T20:51:38.941Z,98501.58
2018-08-30T20:54:08.522Z,98501.13
2018-08-30T20:56:38.820Z,98492.70
2018-08-30T20:59:08.658Z,98502.23
2018-08-30T21:01:38.167Z,98498.80
2018-08-30T21:04:08.683Z,98504.41
2018-08-30T21:06:38.082Z,98495.38
2018-08-30T21:09:09.846Z,98489.69
2018-08-30T21:11:39.973Z,98500.28
2018-08-30T21:14:09.312Z,98498.02
2018-08-30T21:16:38.740Z,98495.34
2018-08-30T21:19:08.145Z,98492.78
2018-08-30T21:21:37.572Z,98493.35
2018-08-30T21:24:07.062Z,98492.72
2018-08-30T21:26:36.537Z,98488.91
2018-08-30T21:29:06.163Z,98485.18
2018-08-30T21:31:35.518Z,98484.87
2018-08-30T21:34:04.890Z,98485.86
2018-08-30T21:36:34.329Z,98481.61
2018-08-30T21:39:05.161Z,98481.38
2018-08-30T21:41:34.524Z,98482.25
2018-08-30T21:44:03.986Z,98478.48
2018-08-30T21:46:33.534Z,98476.07
2018-08-30T21:49:03.016Z,98484.30
2018-08-30T21:51:32.365Z,98481.05
2018-08-30T21:54:01.803Z,98484.67
2018-08-30T21:56:31.158Z,98486.08
2018-08-30T21:59:00.616Z,98482.34
2018-08-30T22:01:29.975Z,98487.90
2018-08-30T22:03:59.399Z,98492.34
2018-08-30T22:06:28.818Z,98488.08
2018-08-30T22:08:58.381Z,98496.73
2018-08-30T22:11:27.827Z,98486.96
2018-08-30T22:13:57.197Z,98488.78
2018-08-30T22:16:26.626Z,98487.62
2018-08-30T22:18:55.983Z,98488.84
2018-08-30T22:21:25.342Z,98487.23
2018-08-30T22:23:54.715Z,98483.30
2018-08-30T22:26:24.109Z,98485.02
2018-08-30T22:28:53.486Z,98485.89
2018-08-30T22:31:22.939Z,98485.39
2018-08-30T22:33:52.289Z,98489.63
2018-08-30T22:36:21.749Z,98490.51
2018-08-30T22:38:51.093Z,98484.85
2018-08-30T22:41:20.567Z,98482.23
2018-08-30T22:43:49.917Z,98476.87
2018-08-30T22:46:19.364Z,98475.63
2018-08-30T22:48:48.751Z,98470.56
2018-08-30T22:51:18.125Z,98472.72
2018-08-30T22:53:47.557Z,98475.41
2018-08-30T22:56:16.937Z,98473.75
2018-08-30T22:58:46.391Z,98473.36
2018-08-30T23:01:15.757Z,98473.01
2018-08-30T23:03:45.167Z,98470.02
2018-08-30T23:06:14.533Z,98470.96
2018-08-30T23:08:43.975Z,98476.40
2018-08-30T23:11:13.362Z,98487.07
2018-08-30T23:13:42.782Z,98483.80
2018-08-30T23:16:12.176Z,98482.95
2018-08-30T23:18:41.598Z,98484.23
2018-08-30T23:21:10.974Z,98484.23
2018-08-30T23:23:40.399Z,98481.11
2018-08-30T23:26:09.770Z,98478.13
2018-08-30T23:28:39.200Z,98474.41
2018-08-30T23:31:08.645Z,98474.02
2018-08-30T23:33:38.155Z,98474.86
2018-08-30T23:36:07.539Z,98468.92
2018-08-30T23:38:37.011Z,98471.13
2018-08-30T23:41:06.830Z,98469.81
2018-08-30T23:43:36.239Z,98469.47
2018-08-30T23:46:05.753Z,98466.59
2018-08-30T23:48:35.222Z,98468.86
2018-08-30T23:51:04.634Z,98468.42
2018-08-30T23:53:34.070Z,98476.09
2018-08-30T23:56:03.466Z,98471.85
2018-08-30T23:58:50.035Z,98474.13
